ADDS METAR Data INFO
IDs: Format: Raw Decoded Include TAF

Data at: 0113 UTC 24 Jun 2018

KRPJ 240055Z AUTO 00000KT 10SM BKN120 23/17 A2979 RMK AO2 T02330170
KRPJ 240035Z AUTO 00000KT 10SM BKN120 24/17 A2979 RMK AO2 T02360165
KRPJ 240015Z AUTO 00000KT 10SM SCT120 24/17 A2978 RMK AO2 T02350170
KRPJ 232355Z AUTO 00000KT 10SM CLR 24/16 A2978 RMK AO2 T02410162 10255 20231
KRPJ 232335Z AUTO 00000KT 10SM CLR 24/17 A2978 RMK AO2 T02420166
KRPJ 232315Z AUTO 30003KT 10SM SCT120 25/16 A2978 RMK AO2 T02450160
KRPJ 232255Z AUTO 00000KT 10SM SCT120 25/16 A2978 RMK AO2 T02530157
KRPJ 232235Z AUTO 00000KT 10SM SCT047 25/16 A2978 RMK AO2 T02490156
KRPJ 232215Z AUTO 00000KT 10SM BKN047 25/16 A2978 RMK AO2 T02490155
KRPJ 232155Z AUTO 00000KT 10SM SCT047 25/16 A2978 RMK AO2 T02520156
KRPJ 232135Z AUTO 00000KT 10SM CLR 25/16 A2979 RMK AO2 T02540162
KRPJ 232115Z AUTO 34003KT 10SM CLR 25/16 A2978 RMK AO2 T02500161
KRPJ 232055Z AUTO 34005KT 10SM SCT044 SCT050 25/17 A2978 RMK AO2 T02490167
KRPJ 232035Z AUTO 00000KT 10SM SCT042 SCT050 25/16 A2978 RMK AO2 T02470156
KRPJ 232015Z AUTO 33004KT 10SM SCT042 BKN055 BKN070 25/17 A2978 RMK AO2 T02490168
KRPJ 231955Z AUTO 00000KT 10SM SCT042 BKN055 25/16 A2978 RMK AO2 T02490159
KRPJ 231935Z AUTO 00000KT 10SM SCT042 BKN050 BKN065 25/16 A2978 RMK AO2 T02450162
KRPJ 231915Z AUTO 00000KT 10SM SCT044 24/16 A2978 RMK AO2 T02420163
KRPJ 231855Z AUTO 00000KT 10SM SCT040 25/17 A2978 RMK AO2 T02490167
KRPJ 231835Z AUTO 00000KT 10SM SCT036 SCT044 24/17 A2978 RMK AO2 T02430166
KRPJ 231815Z AUTO 30003KT 10SM BKN036 24/17 A2978 RMK AO2 T02410166
KRPJ 231755Z AUTO 00000KT 10SM SCT034 24/16 A2978 RMK AO2 T02360160 10237 20166
KRPJ 231735Z AUTO 00000KT 10SM SCT034 23/16 A2977 RMK AO2 T02320162
KRPJ 231715Z AUTO 00000KT 10SM BKN032 23/16 A2978 RMK AO2 T02280157
KRPJ 231655Z AUTO 00000KT 10SM SCT027 SCT032 23/17 A2977 RMK AO2 T02260166
KRPJ 231635Z AUTO 00000KT 10SM SCT027 23/17 A2978 RMK AO2 T02250171
KRPJ 231615Z AUTO 25003KT 10SM SCT028 22/17 A2978 RMK AO2 T02200172
KRPJ 231555Z AUTO 00000KT 10SM CLR 22/17 A2979 RMK AO2 T02180169
KRPJ 231535Z AUTO 00000KT 10SM CLR 22/17 A2978 RMK AO2 T02150167
KRPJ 231515Z AUTO 00000KT 10SM CLR 21/17 A2978 RMK AO2 T02100174
KRPJ 231455Z AUTO 00000KT 10SM CLR 20/17 A2978 RMK AO2 T02040167
KRPJ 231435Z AUTO 00000KT 10SM CLR 20/17 A2980 RMK AO2 T02000168
KRPJ 231415Z AUTO 00000KT 10SM CLR 19/16 A2980 RMK AO2 T01940163
KRPJ 231355Z AUTO 00000KT 10SM CLR 19/16 A2979 RMK AO2 T01900157
KRPJ 231335Z AUTO 00000KT 10SM CLR 19/15 A2978 RMK AO2 T01860151
KRPJ 231315Z AUTO 00000KT 10SM CLR 18/15 A2978 RMK AO2 T01810148
KRPJ 231255Z AUTO 33004KT 10SM CLR 18/15 A2978 RMK AO2 T01780148
KRPJ 231235Z AUTO 00000KT 10SM CLR 18/15 A2977 RMK AO2 T01760145
KRPJ 231215Z AUTO 00000KT 10SM CLR 17/14 A2976 RMK AO2 T01720144
KRPJ 231155Z AUTO 02005KT 10SM CLR 17/14 A2974 RMK AO2 70025 T01650142 10165 20148
KRPJ 231135Z AUTO 00000KT 10SM CLR 16/14 A2974 RMK AO2 T01590143
KRPJ 231115Z AUTO 00000KT 10SM SCT027 15/15 A2975 RMK AO2 T01520145
KRPJ 231055Z AUTO 00000KT 10SM SCT020 SCT027 15/14 A2976 RMK AO2 T01500142
KRPJ 231035Z AUTO 00000KT 10SM BKN020 BKN042 15/15 A2976 RMK AO2 T01530145
KRPJ 231015Z AUTO 00000KT 10SM SCT018 BKN042 OVC055 16/15 A2977 RMK AO2 T01550146
KRPJ 230955Z AUTO 00000KT 10SM SCT042 OVC055 16/15 A2976 RMK AO2 T01570150
KRPJ 230935Z AUTO 00000KT 10SM OVC039 16/15 A2976 RMK AO2 T01580150
KRPJ 230915Z AUTO 00000KT 10SM OVC034 16/15 A2976 RMK AO2 T01590146
KRPJ 230855Z AUTO 00000KT 10SM OVC028 16/15 A2977 RMK AO2 T01600146
KRPJ 230835Z AUTO 00000KT 10SM OVC026 16/15 A2977 RMK AO2 T01600145
KRPJ 230815Z AUTO 00000KT 10SM OVC026 16/15 A2978 RMK AO2 T01610148
KRPJ 230755Z AUTO 00000KT 10SM OVC026 16/15 A2977 RMK AO2 T01620147
KRPJ 230735Z AUTO 00000KT 10SM BKN026 OVC032 16/14 A2976 RMK AO2 T01640143
KRPJ 230715Z AUTO 00000KT 10SM SCT011 SCT025 OVC040 16/14 A2976 RMK AO2 T01630144
KRPJ 230655Z AUTO 00000KT 10SM OVC036 16/15 A2974 RMK AO2 T01640148
KRPJ 230635Z AUTO 00000KT 10SM OVC034 16/15 A2974 RMK AO2 LTG DSNT W T01630149
KRPJ 230615Z AUTO 00000KT 10SM OVC034 16/15 A2976 RMK AO2 T01630149
KRPJ 230555Z AUTO 00000KT 10SM OVC032 16/15 A2974 RMK AO2 T01620148 10168 20160 401750143
KRPJ 230535Z AUTO 00000KT 10SM OVC028 17/15 A2974 RMK AO2 T01650150
KRPJ 230515Z AUTO 00000KT 10SM OVC024 17/15 A2976 RMK AO2 T01650150
KRPJ 230455Z AUTO 06005KT 10SM OVC024 17/15 A2976 RMK AO2 T01650149
KRPJ 230435Z AUTO 05007KT 10SM SCT024 OVC032 17/15 A2975 RMK AO2 T01650146
KRPJ 230415Z AUTO 04005KT 10SM SCT022 OVC030 16/14 A2976 RMK AO2 T01620142
KRPJ 230355Z AUTO 04007KT 10SM OVC022 16/14 A2976 RMK AO2 T01640142
KRPJ 230335Z AUTO 04006KT 10SM OVC020 17/15 A2976 RMK AO2 T01650145
KRPJ 230315Z AUTO 04008KT 10SM BKN020 OVC025 17/15 A2976 RMK AO2 T01650145
KRPJ 230255Z AUTO 04008KT 10SM SCT024 BKN034 OVC085 17/15 A2976 RMK AO2 T01650146
KRPJ 230235Z AUTO 02007KT 10SM SCT026 OVC034 17/15 A2976 RMK AO2 T01660153
KRPJ 230215Z AUTO 02004KT 10SM BKN026 OVC032 17/16 A2976 RMK AO2 T01670156
KRPJ 230155Z AUTO 02005KT 10SM BKN024 OVC032 17/16 A2975 RMK AO2 T01670156
KRPJ 230135Z AUTO 03006KT 10SM OVC022 17/16 A2975 RMK AO2 T01680155
KRPJ 230115Z AUTO 02005KT 10SM OVC022 17/16 A2976 RMK AO2 T01660155
KRPJ 230055Z AUTO 01005KT 10SM OVC020 17/16 A2976 RMK AO2 T01650155
KRPJ 230035Z AUTO 01004KT 10SM OVC020 16/16 A2976 RMK AO2 T01630156
KRPJ 230015Z AUTO 01004KT 10SM OVC020 16/16 A2976 RMK AO2 T01610156
KRPJ 222355Z AUTO 03006KT 7SM SCT006 OVC020 16/16 A2976 RMK AO2 P0009 60011 T01600156 10175 20156
KRPJ 222335Z AUTO 03008KT 5SM RA BKN006 OVC018 16/16 A2976 RMK AO2 P0009 T01560155
KRPJ 222315Z AUTO 04008KT 2 1/2SM +RA BKN006 BKN010 OVC018 16/16 A2976 RMK AO2 P0006 T01560155
KRPJ 222255Z AUTO 04011KT 2 1/2SM RA OVC008 16/16 A2977 RMK AO2 P0002 T01570155
KRPJ 222235Z AUTO 05009KT 3SM RA BKN008 OVC014 16/16 A2977 RMK AO2 T01610156
KRPJ 222215Z AUTO 05008KT 7SM OVC010 16/15 A2977 RMK AO2 T01640153
KRPJ 222155Z AUTO 05009KT 10SM OVC010 17/16 A2977 RMK AO2 T01660156
KRPJ 222135Z AUTO 05011KT 10SM OVC010 17/16 A2978 RMK AO2 T01670156
KRPJ 222115Z AUTO 05008KT 10SM OVC012 17/16 A2977 RMK AO2 T01700157
KRPJ 222055Z AUTO 04008KT 10SM OVC012 17/16 A2976 RMK AO2 T01710160
KRPJ 222035Z AUTO 06007KT 10SM OVC012 18/16 A2977 RMK AO2 T01750159
KRPJ 222015Z AUTO 07005KT 10SM OVC012 18/16 A2976 RMK AO2 T01750158
KRPJ 221955Z AUTO 07006KT 10SM OVC012 17/16 A2977 RMK AO2 LTG DSNT SE T01730157
KRPJ 221935Z AUTO 07009KT 10SM OVC012 17/16 A2977 RMK AO2 T01720155
KRPJ 221915Z AUTO 07007KT 10SM OVC010 17/16 A2977 RMK AO2 T01700156
KRPJ 221855Z AUTO 05011KT 10SM OVC010 17/15 A2977 RMK AO2 T01680154
KRPJ 221835Z AUTO 06010G16KT 10SM OVC010 17/15 A2977 RMK AO2 T01680153
KRPJ 221815Z AUTO 04011G16KT 10SM OVC010 17/15 A2976 RMK AO2 T01660153
KRPJ 221755Z AUTO 03012KT 10SM OVC010 16/15 A2976 RMK AO2 60014 T01600151 10165 20143
KRPJ 221735Z AUTO 04014G19KT 10SM OVC010 16/15 A2976 RMK AO2 LTG DSNT SE AND S T01590151
KRPJ 221715Z AUTO 04014KT 10SM BKN008 OVC013 16/15 A2977 RMK AO2 T01550149
KRPJ 221655Z AUTO 04013KT 10SM OVC008 15/15 A2977 RMK AO2 T01500145
KRPJ 221635Z AUTO 03016G20KT 10SM OVC008 15/14 A2979 RMK AO2 T01490143
KRPJ 221615Z AUTO 04015G20KT 10SM OVC008 15/14 A2979 RMK AO2 T01490144
KRPJ 221555Z AUTO 03016G19KT 10SM -DZ OVC006 15/14 A2979 RMK AO2 P0003 T01470144
KRPJ 221535Z AUTO 03015KT 10SM -RA BKN008 BKN012 OVC031 15/14 A2979 RMK AO2 P0003 T01450143
KRPJ 221515Z AUTO 03015G20KT 7SM -RA BKN006 BKN012 OVC030 15/14 A2980 RMK AO2 P0002 T01450143
KRPJ 221455Z AUTO 03014KT 7SM -RA OVC008 15/15 A2980 RMK AO2 P0004 60011 T01480145
KRPJ 221435Z AUTO 03012KT 7SM -RA OVC008 15/15 A2980 RMK AO2 P0003 T01520150
KRPJ 221415Z AUTO 04013KT 7SM RA OVC006 16/16 A2980 RMK AO2 P0001 T01580156
KRPJ 221355Z AUTO 04010KT 10SM -RA OVC006 16/16 A2980 RMK AO2 P0005 T01610160
KRPJ 221335Z AUTO 04009KT 7SM -RA OVC006 16/16 A2979 RMK AO2 P0004 T01610160
KRPJ 221315Z AUTO 05010KT 5SM RA OVC008 16/16 A2979 RMK AO2 P0002 T01610160